MKR weather

Meekatharra Airport
Western Australia, Australia

Public forecast

Using degrees Celsius for public forecast. Weather courtesy of forecast.io.

METAR (pilot weather report)

Retrieved 2019/03/23 16:00 UTC (42 minutes ago):

YMEK 231600Z AUTO 09007KT 9999 // NCD 25/17 Q1011

TAF (pilot weather forecast)

Forecast is more than 6 hours old.

Closest forecast is Geraldton Airport, 242.6 nm (449.4 km) WSW. Retrieved 2019/03/23 06:00 UTC (11 hours ago):

TAF YGEL 230431Z 2306/2324 18018KT CAVOK FM231200 15016KT CAVOK